»·PEaware :: N48MS KSLC-KSNA

N48MS :: KSLC-KSNA

FLIGHT INFORMATION

Flight Status: Arrived
Operator: Privately registered:
United States
More flights under this callsign
Pilot: Nick R. (33487)
Aircraft: GULFSTREAM G-1159C GULFSTREAM 4
(GLF4)
More flights by this aircraft type
Origin: KSLC Salt Lake City Intl
United States
Destination: KSNA John Wayne-Orange Co
United States
More flights between these airports :: More routes between these airports
Route: ARCHZ1 WINEN ZAINY Q114 NATEE DSNEE5
File this flight plan on PilotEdge
Remarks:
Altitude:
(Current/Filed)
42,000ft
Speed:
(Current/Filed)
320kts
Departed: 22-Sep-22 06:42 PM
Arrived: 22-Sep-22 08:03 PM
Distance/Time
Traveled:
511nm/1:21
Distance/Time
To Go:
Arrived

Flight Plot

Page will automatically refresh every two minutes.

Flight plan parsing failed; only flown route is shown


Map Options




Map Legend


Flown Route
Filed Route
Departure Airport
Arrival Airport
Navaid (VOR, NDB)
Fix

Horizontal Profiles

Position Reports

Time Latitude Longitude Heading Altitude Ground
Speed
22-Sep-22 18:23 40.775526 -111.959356 357 4227ft 0kts
22-Sep-22 18:24 40.775526 -111.959356 357 4227ft 0kts
22-Sep-22 18:25 40.775526 -111.959356 357 4227ft 0kts
22-Sep-22 18:26 40.775526 -111.959356 357 4227ft 0kts
22-Sep-22 18:27 40.775526 -111.959356 357 4227ft 0kts
22-Sep-22 18:28 40.775526 -111.959356 357 4227ft 0kts
22-Sep-22 18:29 40.775526 -111.959356 357 4227ft 0kts
22-Sep-22 18:30 40.775526 -111.959356 357 4227ft 0kts
22-Sep-22 18:31 40.775526 -111.959356 357 4227ft 0kts
22-Sep-22 18:32 40.775526 -111.959356 357 4227ft 0kts
22-Sep-22 18:33 40.775756 -111.959705 283 4227ft 0kts
22-Sep-22 18:34 40.774129 -111.960589 182 4227ft 25kts
22-Sep-22 18:35 40.772887 -111.960809 219 4227ft 0kts
22-Sep-22 18:36 40.772873 -111.960825 221 4227ft 0kts
22-Sep-22 18:37 40.772873 -111.960825 221 4227ft 0kts
22-Sep-22 18:39 40.773131 -111.960801 184 4227ft 6kts
22-Sep-22 18:40 40.773037 -111.960814 187 4227ft 0kts
22-Sep-22 18:41 40.774136 -111.962096 358 4227ft 47kts
22-Sep-22 18:42 40.829553 -111.963581 341 6410ft 287kts
22-Sep-22 18:43 40.887186 -112.041591 308 10439ft 303kts
22-Sep-22 18:44 40.898617 -112.153318 233 13542ft 328kts
22-Sep-22 18:45 40.821560 -112.229898 217 15398ft 376kts
22-Sep-22 18:46 40.739621 -112.319932 211 18508ft 374kts
22-Sep-22 18:47 40.641184 -112.356379 189 22433ft 327kts
22-Sep-22 18:48 40.550032 -112.377312 190 22228ft 275kts
22-Sep-22 18:49 40.457243 -112.395709 191 24470ft 391kts
22-Sep-22 18:50 40.341011 -112.426176 191 26067ft 439kts
22-Sep-22 18:51 40.217023 -112.458467 191 27618ft 447kts
22-Sep-22 18:52 40.092089 -112.531150 208 29251ft 501kts
22-Sep-22 18:53 39.965677 -112.620020 208 30798ft 503kts
22-Sep-22 18:54 39.839475 -112.708209 207 32331ft 498kts
22-Sep-22 18:55 39.714960 -112.794899 207 33844ft 491kts
22-Sep-22 18:56 39.583490 -112.857698 196 34879ft 489kts
22-Sep-22 18:57 39.450742 -112.910527 196 35893ft 483kts
22-Sep-22 18:58 39.319271 -112.962666 196 36909ft 480kts
22-Sep-22 18:59 39.187576 -113.014666 195 37933ft 480kts
22-Sep-22 19:00 39.056995 -113.065996 196 38955ft 477kts
22-Sep-22 19:01 38.927130 -113.116889 196 39983ft 472kts
22-Sep-22 19:02 38.798434 -113.167136 196 40995ft 468kts
22-Sep-22 19:03 38.671102 -113.216611 196 42005ft 462kts
22-Sep-22 19:04 38.545844 -113.265161 197 43015ft 454kts
22-Sep-22 19:05 38.421574 -113.313131 197 43174ft 462kts
22-Sep-22 19:06 38.293015 -113.362572 196 43184ft 465kts
22-Sep-22 19:07 38.165994 -113.411249 196 43195ft 466kts
22-Sep-22 19:08 38.037418 -113.460343 196 43228ft 468kts
22-Sep-22 19:09 37.908994 -113.507875 193 43223ft 466kts
22-Sep-22 19:10 37.779463 -113.549066 194 43210ft 467kts
22-Sep-22 19:11 37.649851 -113.590238 194 43214ft 468kts
22-Sep-22 19:12 37.520600 -113.631158 193 43211ft 469kts
22-Sep-22 19:13 37.391576 -113.671851 193 43145ft 461kts
22-Sep-22 19:14 37.264935 -113.711674 193 43119ft 462kts
22-Sep-22 19:15 37.137220 -113.751681 193 43067ft 458kts
22-Sep-22 19:16 37.009468 -113.791565 193 43070ft 459kts
22-Sep-22 19:17 36.882075 -113.831199 193 43082ft 461kts
22-Sep-22 19:18 36.753458 -113.871077 193 43095ft 463kts
22-Sep-22 19:19 36.633153 -113.937002 220 43124ft 466kts
22-Sep-22 19:20 36.546505 -114.063379 230 43116ft 470kts
22-Sep-22 19:21 36.460017 -114.190367 230 43080ft 449kts
22-Sep-22 19:22 36.393937 -114.287025 230 43046ft 465kts
22-Sep-22 19:23 36.307700 -114.412714 230 43025ft 462kts
22-Sep-22 19:24 36.222352 -114.536671 230 42992ft 458kts
22-Sep-22 19:25 36.136015 -114.661566 229 42987ft 468kts
22-Sep-22 19:26 36.049042 -114.786926 229 42983ft 468kts
22-Sep-22 19:27 35.960655 -114.911590 228 42982ft 468kts
22-Sep-22 19:28 35.871032 -115.033999 228 42990ft 468kts
22-Sep-22 19:29 35.780926 -115.156623 228 42994ft 469kts
22-Sep-22 19:30 35.691042 -115.278502 228 43000ft 470kts
22-Sep-22 19:31 35.601040 -115.400113 228 43007ft 471kts
22-Sep-22 19:32 35.510161 -115.522486 228 43009ft 472kts
22-Sep-22 19:33 35.418898 -115.644934 228 43018ft 473kts
22-Sep-22 19:34 35.327482 -115.767148 227 43034ft 475kts
22-Sep-22 19:35 35.234964 -115.890474 226 43094ft 479kts
22-Sep-22 19:36 35.139643 -116.011222 225 43086ft 481kts
22-Sep-22 19:37 35.043862 -116.131771 226 43050ft 478kts
22-Sep-22 19:38 34.949264 -116.250399 226 40998ft 464kts
22-Sep-22 19:39 34.854885 -116.369113 226 37615ft 500kts
22-Sep-22 19:40 34.761151 -116.488458 226 33976ft 478kts
22-Sep-22 19:41 34.666416 -116.600941 219 29961ft 450kts
22-Sep-22 19:42 34.570223 -116.695081 218 27044ft 415kts
22-Sep-22 19:43 34.478811 -116.788530 224 24785ft 410kts
22-Sep-22 19:44 34.395248 -116.885973 223 22327ft 399kts
22-Sep-22 19:45 34.314796 -116.978986 223 19216ft 377kts
22-Sep-22 19:46 34.232646 -117.058283 210 15514ft 360kts
22-Sep-22 19:47 34.144994 -117.116671 204 14190ft 357kts
22-Sep-22 19:48 34.057321 -117.163572 204 12649ft 323kts
22-Sep-22 19:49 33.976786 -117.223065 230 11909ft 338kts
22-Sep-22 19:50 33.916716 -117.307933 229 9329ft 301kts
22-Sep-22 19:51 33.867610 -117.377432 229 8440ft 257kts
22-Sep-22 19:52 33.820144 -117.445224 238 8439ft 255kts
22-Sep-22 19:53 33.795872 -117.527512 269 8437ft 255kts
22-Sep-22 19:54 33.824300 -117.607307 301 7770ft 253kts
22-Sep-22 19:55 33.862253 -117.681350 301 6293ft 241kts
22-Sep-22 19:56 33.898623 -117.752242 301 4574ft 242kts
22-Sep-22 19:57 33.906977 -117.827731 236 4190ft 241kts
22-Sep-22 19:58 33.840936 -117.842419 178 3455ft 290kts
22-Sep-22 19:59 33.772406 -117.840872 181 2871ft 211kts
22-Sep-22 20:00 33.719580 -117.843217 191 1321ft 155kts
22-Sep-22 20:01 33.685655 -117.862302 202 310ft 132kts
22-Sep-22 20:02 33.668517 -117.873359 203 60ft 18kts
22-Sep-22 20:03 33.667562 -117.872916 106 60ft 0kts
22-Sep-22 20:04 33.667028 -117.872978 197 60ft 15kts

Navigation Log

Ident Type
Flight plan parsing failed, navigation log unavailable